Terminal Aerodrome Forecast
Issued by NWS Pittsburgh, PA

Current Version | Previous Version | Text Only | Print | Product List | Glossary Off
Versions: 1 2 3 4 5 6 7 8 9 10 11 12 13 14 15 16 17 18 19 20 21 22 23 24 25 26

000
FTUS41 KPBZ 190500
TAFPIT
TAF
KPIT 190540Z 1906/2012 27008KT 6SM -SHSN OVC015
     FM190800 29008KT P6SM OVC015
      TEMPO 1908/1912 5SM -SN BR OVC010
     FM200000 31003KT P6SM OVC025=

USA.gov is the U.S. government's official web portal to all federal, state and local government web resources and services.